Terminal Aerodrome Forecast
Issued by NWS

Home | Current Version | Previous Version | Text Only | Print | Product List | Glossary On
Versions: 1 2 3 4 5 6 7 8 9 10 11 12 13
000
FTUS46 KSGX 021734
TAFSNA
TAF
KSNA 021734Z 0218/0318 04020G30KT P6SM SKC
     FM030200 06012G20KT P6SM SKC WS010/06030KT
     FM030900 07006KT P6SM SKC WS015/06030KT=

USA.gov is the U.S. government's official web portal to all federal, state and local government web resources and services.